Time;durP1;ratioP1;P1;durP2;ratioP2;P2;SDS_P1;SDS_P2;PMS_P1;PMS_P2;Temp;Humidity;BMP_temperature;BMP_pressure;BME280_temperature;BME280_humidity;BME280_pressure;Samples;Min_cycle;Max_cycle;Signal;HPM_P1;HPM_P2
2023/08/06 00:01:32;;;;;;;8.23;4.13;;;;;;;18.31;100.00;100321.03;5036181;28;20522;-69
2023/08/06 00:04:00;;;;;;;8.63;3.90;;;;;;;18.33;100.00;100317.94;5036050;28;20483;-69
2023/08/06 00:06:27;;;;;;;12.63;3.80;;;;;;;18.33;100.00;100316.00;5036326;28;20467;-69
2023/08/06 00:08:54;;;;;;;8.67;4.13;;;;;;;18.34;100.00;100309.34;5036192;28;20447;-69
2023/08/06 00:11:22;;;;;;;12.60;4.07;;;;;;;18.35;100.00;100316.41;5036240;28;20853;-69
2023/08/06 00:13:49;;;;;;;7.90;4.20;;;;;;;18.30;100.00;100313.16;5035554;28;20482;-68
2023/08/06 00:16:16;;;;;;;14.37;4.63;;;;;;;18.31;100.00;100318.28;5035769;28;20459;-70
2023/08/06 00:18:42;;;;;;;9.63;3.73;;;;;;;18.31;100.00;100317.50;5035734;28;20525;-70
2023/08/06 00:21:09;;;;;;;10.37;4.07;;;;;;;18.33;100.00;100316.00;5036130;28;20427;-68
2023/08/06 00:23:36;;;;;;;11.57;4.10;;;;;;;18.30;100.00;100307.69;5035956;28;20510;-69
2023/08/06 00:26:02;;;;;;;13.23;3.80;;;;;;;18.31;100.00;100307.31;5035235;28;20542;-69
2023/08/06 00:28:30;;;;;;;10.23;4.30;;;;;;;18.32;100.00;100303.41;5035312;28;20989;-69
2023/08/06 00:30:57;;;;;;;7.47;3.47;;;;;;;18.33;100.00;100299.53;5035901;28;20993;-69
2023/08/06 00:33:25;;;;;;;9.27;3.97;;;;;;;18.31;100.00;100299.09;5035825;28;20467;-69
2023/08/06 00:35:52;;;;;;;8.67;3.60;;;;;;;18.31;100.00;100298.28;5035242;28;20986;-69
2023/08/06 00:38:18;;;;;;;8.33;3.73;;;;;;;18.32;100.00;100303.41;5035765;28;20522;-69
2023/08/06 00:40:45;;;;;;;8.97;3.40;;;;;;;18.27;100.00;100300.94;5035104;28;20497;-69
2023/08/06 00:43:12;;;;;;;10.67;4.07;;;;;;;18.25;100.00;100300.53;5035185;28;20573;-69
2023/08/06 00:45:41;;;;;;;9.33;3.83;;;;;;;18.28;100.00;100299.00;5035396;28;20525;-69
2023/08/06 00:48:08;;;;;;;9.93;3.87;;;;;;;18.28;100.00;100288.84;5035265;28;20454;-69
2023/08/06 00:50:35;;;;;;;14.53;4.20;;;;;;;18.31;100.00;100293.59;5035198;28;20467;-69
2023/08/06 00:53:02;;;;;;;9.67;4.50;;;;;;;18.22;100.00;100290.28;5034855;28;20439;-69
2023/08/06 00:55:30;;;;;;;9.90;4.40;;;;;;;18.23;100.00;100297.34;5035116;28;20463;-69
2023/08/06 00:57:57;;;;;;;8.70;3.80;;;;;;;18.18;100.00;100294.09;5035063;28;20443;-69
2023/08/06 01:00:24;;;;;;;9.77;4.07;;;;;;;18.17;100.00;100292.50;5034949;28;20447;-69
2023/08/06 01:02:53;;;;;;;7.80;3.47;;;;;;;18.16;100.00;100286.25;5034897;28;20489;-69
2023/08/06 01:05:21;;;;;;;8.67;3.70;;;;;;;18.17;99.80;100287.81;5035058;28;20469;-69
2023/08/06 01:07:58;;;;;;;9.23;4.00;;;;;;;18.16;100.00;100278.03;5034533;28;20475;-69
2023/08/06 01:10:35;;;;;;;9.30;3.57;;;;;;;18.13;100.00;100276.00;5034922;28;20530;-69
2023/08/06 01:13:12;;;;;;;10.13;4.70;;;;;;;18.15;100.00;100273.69;5035179;28;20445;-69
2023/08/06 01:15:45;;;;;;;9.07;3.63;;;;;;;18.19;100.00;100268.25;5034658;28;20532;-69
2023/08/06 01:18:13;;;;;;;8.33;4.17;;;;;;;18.18;100.00;100267.47;5034699;28;20424;-69
2023/08/06 01:20:41;;;;;;;7.73;3.70;;;;;;;18.21;100.00;100266.75;5034213;28;20439;-69
2023/08/06 01:23:08;;;;;;;9.60;3.57;;;;;;;18.20;100.00;100261.66;5034270;28;21013;-69
2023/08/06 01:25:41;;;;;;;9.40;3.83;;;;;;;18.21;100.00;100261.28;5034046;28;21044;-69
2023/08/06 01:28:16;;;;;;;8.37;3.67;;;;;;;18.20;100.00;100254.22;5034524;28;20435;-69
2023/08/06 01:30:43;;;;;;;8.73;4.13;;;;;;;18.21;100.00;100250.31;5034448;28;20514;-69
2023/08/06 01:33:17;;;;;;;10.60;4.23;;;;;;;18.22;100.00;100251.88;5034425;28;20436;-69
2023/08/06 01:35:47;;;;;;;10.23;4.80;;;;;;;18.18;100.00;100247.50;5034478;28;20563;-69
2023/08/06 01:38:13;;;;;;;8.73;3.90;;;;;;;18.18;100.00;100251.03;5033944;28;20485;-69
2023/08/06 01:40:40;;;;;;;11.70;4.30;;;;;;;18.18;100.00;100242.00;5034616;28;20435;-69
2023/08/06 01:43:07;;;;;;;9.50;4.67;;;;;;;18.18;100.00;100239.28;5034111;28;20578;-70
2023/08/06 01:45:33;;;;;;;12.43;4.33;;;;;;;18.15;100.00;100240.81;5034175;28;20551;-69
2023/08/06 01:48:00;;;;;;;9.63;4.20;;;;;;;18.15;100.00;100240.81;5034164;28;20471;-69
2023/08/06 01:50:26;;;;;;;9.27;4.03;;;;;;;18.12;100.00;100230.53;5033658;28;20526;-69
2023/08/06 01:52:54;;;;;;;9.47;4.27;;;;;;;18.11;100.00;100234.44;5033685;28;20471;-69
2023/08/06 01:55:21;;;;;;;16.57;4.27;;;;;;;18.12;100.00;100236.03;5033853;28;20459;-69
2023/08/06 01:57:48;;;;;;;13.60;5.40;;;;;;;18.10;100.00;100230.88;5034174;28;20501;-69
2023/08/06 02:00:14;;;;;;;10.33;4.53;;;;;;;18.10;100.00;100227.34;5034195;28;20447;-69
2023/08/06 02:02:41;;;;;;;8.80;4.27;;;;;;;18.10;100.00;100221.88;5033530;28;20529;-69
2023/08/06 02:05:08;;;;;;;8.97;4.47;;;;;;;18.13;100.00;100212.94;5033836;28;20865;-69
2023/08/06 02:07:34;;;;;;;8.37;4.20;;;;;;;18.14;100.00;100220.00;5034296;28;20452;-69
2023/08/06 02:10:03;;;;;;;10.50;4.53;;;;;;;18.08;100.00;100221.44;5062086;22;20592;-71
2023/08/06 02:12:29;;;;;;;10.50;4.50;;;;;;;18.10;100.00;100219.13;5073765;28;20424;-71
2023/08/06 02:14:56;;;;;;;12.43;4.77;;;;;;;18.04;100.00;100218.63;5074038;28;20536;-71
2023/08/06 02:17:22;;;;;;;9.07;3.97;;;;;;;18.09;100.00;100220.28;5073958;28;20447;-71
2023/08/06 02:19:49;;;;;;;9.80;4.37;;;;;;;18.11;100.00;100218.00;5074201;28;20463;-71
2023/08/06 02:22:15;;;;;;;9.00;3.73;;;;;;;18.11;100.00;100207.81;5073662;28;20452;-71
2023/08/06 02:24:42;;;;;;;10.00;4.33;;;;;;;18.13;100.00;100215.69;5073439;28;20516;-71
2023/08/06 02:27:10;;;;;;;9.70;4.13;;;;;;;18.13;100.00;100213.72;5073769;28;20516;-71
2023/08/06 02:29:37;;;;;;;8.40;4.40;;;;;;;18.11;100.00;100204.28;5073358;28;20529;-71
2023/08/06 02:32:04;;;;;;;9.60;4.33;;;;;;;18.09;100.00;100206.59;5073938;28;20456;-71
2023/08/06 02:34:31;;;;;;;11.70;4.30;;;;;;;18.10;100.00;100206.22;5073449;28;20465;-71
2023/08/06 02:36:57;;;;;;;8.67;4.20;;;;;;;18.11;100.00;100207.81;5073405;28;20449;-71
2023/08/06 02:39:24;;;;;;;9.97;4.87;;;;;;;18.08;100.00;100202.25;5073458;28;20868;-71
2023/08/06 02:41:51;;;;;;;11.20;4.47;;;;;;;18.07;100.00;100206.97;5073387;28;20532;-71
2023/08/06 02:44:19;;;;;;;13.63;4.30;;;;;;;18.07;100.00;100197.94;5073259;28;20495;-71
2023/08/06 02:46:45;;;;;;;9.00;4.37;;;;;;;18.07;100.00;100195.19;5073279;28;20501;-71
2023/08/06 02:49:12;;;;;;;11.00;4.47;;;;;;;18.11;100.00;100182.38;5073365;28;20955;-71
2023/08/06 02:51:38;;;;;;;10.10;4.67;;;;;;;18.11;100.00;100171.41;5073337;28;20440;-71
2023/08/06 02:54:05;;;;;;;12.77;4.87;;;;;;;18.04;100.00;100168.50;5073603;28;20429;-71
2023/08/06 02:56:32;;;;;;;8.20;4.20;;;;;;;18.06;100.00;100167.00;5073406;28;20548;-71
2023/08/06 02:58:59;;;;;;;8.80;4.07;;;;;;;18.08;100.00;100172.13;5073254;28;20455;-71
2023/08/06 03:01:28;;;;;;;12.80;4.80;;;;;;;18.06;100.00;100166.19;5073217;28;20464;-71
2023/08/06 03:03:55;;;;;;;9.67;4.60;;;;;;;18.05;100.00;100170.09;5076171;28;20496;-71
2023/08/06 03:06:21;;;;;;;12.93;4.00;;;;;;;18.06;100.00;100168.94;5077078;28;20465;-71
2023/08/06 03:08:48;;;;;;;12.17;4.77;;;;;;;18.03;100.00;100167.72;5077047;28;20441;-71
2023/08/06 03:11:15;;;;;;;10.17;4.17;;;;;;;17.98;100.00;100167.22;5076662;28;20491;-71
2023/08/06 03:13:41;;;;;;;12.60;4.73;;;;;;;17.93;100.00;100162.81;5077178;28;20469;-71
2023/08/06 03:16:08;;;;;;;11.80;5.17;;;;;;;17.88;100.00;100157.59;5077078;28;20461;-71
2023/08/06 03:18:36;;;;;;;12.50;3.63;;;;;;;17.90;100.00;100163.53;5077200;28;20441;-71
2023/08/06 03:21:02;;;;;;;10.50;4.93;;;;;;;17.78;100.00;100161.72;5077070;28;20498;-71
2023/08/06 03:23:29;;;;;;;16.20;4.60;;;;;;;17.79;100.00;100163.31;5076478;28;20639;-71
2023/08/06 03:25:56;;;;;;;8.67;4.03;;;;;;;17.79;100.00;100160.56;5076667;28;20941;-71
2023/08/06 03:28:22;;;;;;;12.30;4.87;;;;;;;17.68;100.00;100161.47;5076732;28;20437;-70
2023/08/06 03:30:49;;;;;;;9.60;4.30;;;;;;;17.62;100.00;100155.50;5076588;28;20445;-70
2023/08/06 03:33:16;;;;;;;9.50;4.40;;;;;;;17.70;100.00;100151.72;5076292;28;20494;-70
2023/08/06 03:35:44;;;;;;;12.63;5.20;;;;;;;17.65;100.00;100157.50;5076487;28;20497;-70
2023/08/06 03:38:11;;;;;;;9.03;4.20;;;;;;;17.64;100.00;100155.91;5076517;28;20510;-71
2023/08/06 03:40:37;;;;;;;12.30;4.57;;;;;;;17.63;100.00;100146.13;5076556;28;21027;-71
2023/08/06 03:43:04;;;;;;;9.53;4.30;;;;;;;17.65;100.00;100141.06;5076360;28;20437;-71
2023/08/06 03:45:30;;;;;;;11.43;5.37;;;;;;;17.69;100.00;100141.16;5076028;28;20876;-71
2023/08/06 03:47:57;;;;;;;9.60;4.80;;;;;;;17.67;100.00;100133.28;5076382;28;20465;-71
2023/08/06 03:50:24;;;;;;;10.60;4.77;;;;;;;17.64;100.00;100134.00;5076227;28;20445;-71
2023/08/06 03:52:51;;;;;;;9.03;4.60;;;;;;;17.64;100.00;100125.78;5076217;28;20469;-70
2023/08/06 03:55:18;;;;;;;8.97;4.73;;;;;;;17.63;100.00;100124.22;5076188;28;21044;-70
2023/08/06 03:57:45;;;;;;;12.77;4.40;;;;;;;17.59;100.00;100123.34;5076382;28;20445;-70
2023/08/06 04:00:12;;;;;;;10.63;4.50;;;;;;;17.56;100.00;100122.09;5075752;28;20441;-70
2023/08/06 04:02:39;;;;;;;9.73;3.63;;;;;;;17.52;100.00;100113.00;5076088;28;20437;-71
2023/08/06 04:05:06;;;;;;;9.30;4.33;;;;;;;17.56;100.00;100119.38;5075557;28;21036;-70
2023/08/06 04:07:32;;;;;;;8.13;4.20;;;;;;;17.53;100.00;100105.59;5076039;28;20452;-70
2023/08/06 04:10:02;;;;;;;10.30;4.53;;;;;;;17.52;100.00;100099.31;5075931;28;20540;-70
2023/08/06 04:12:29;;;;;;;10.13;4.50;;;;;;;17.51;100.00;100097.75;5076020;28;20829;-71
2023/08/06 04:14:58;;;;;;;10.47;4.80;;;;;;;17.51;100.00;100096.94;5075173;28;20493;-71
2023/08/06 04:17:24;;;;;;;12.03;5.23;;;;;;;17.47;100.00;100093.34;5075886;28;20442;-71
2023/08/06 04:19:53;;;;;;;10.27;4.43;;;;;;;17.47;100.00;100096.09;5075739;28;20528;-73
2023/08/06 04:22:20;;;;;;;10.63;4.90;;;;;;;17.41;100.00;100090.09;5075418;28;20445;-71
2023/08/06 04:24:46;;;;;;;8.97;3.70;;;;;;;17.42;100.00;100088.16;5075652;28;20524;-71
2023/08/06 04:27:16;;;;;;;8.67;3.77;;;;;;;17.43;100.00;100081.53;5075937;28;20492;-71
2023/08/06 04:29:43;;;;;;;8.27;3.90;;;;;;;17.45;100.00;100098.41;5075889;28;20469;-71
2023/08/06 04:32:11;;;;;;;7.67;3.50;;;;;;;17.45;100.00;100092.94;5075498;28;20438;-71
2023/08/06 04:34:38;;;;;;;11.73;3.83;;;;;;;17.44;100.00;100086.63;5075438;28;20437;-71
2023/08/06 04:37:05;;;;;;;11.50;4.30;;;;;;;17.43;100.00;100089.75;5075121;28;21044;-71
2023/08/06 04:39:32;;;;;;;12.73;4.27;;;;;;;17.38;100.00;100071.66;5075467;28;20532;-71
2023/08/06 04:41:59;;;;;;;9.73;4.40;;;;;;;17.34;100.00;100071.56;5075343;28;20484;-71
2023/08/06 04:44:27;;;;;;;12.23;5.07;;;;;;;17.33;100.00;100070.00;5075021;28;20473;-71
2023/08/06 04:46:53;;;;;;;10.53;4.07;;;;;;;17.32;100.00;100062.16;5075282;28;20529;-71
2023/08/06 04:49:21;;;;;;;9.47;3.80;;;;;;;17.38;100.00;100069.69;5074915;28;20929;-74
2023/08/06 04:51:48;;;;;;;9.17;3.90;;;;;;;17.35;100.00;100056.75;5075199;28;20533;-74
2023/08/06 04:54:14;;;;;;;8.00;3.37;;;;;;;17.38;100.00;100056.00;5075432;28;20494;-71
2023/08/06 04:56:41;;;;;;;10.40;4.27;;;;;;;17.43;100.00;100049.47;5075154;28;20552;-71
2023/08/06 04:59:08;;;;;;;10.40;4.73;;;;;;;17.39;100.00;100052.13;5074705;28;20529;-71
2023/08/06 05:01:36;;;;;;;10.80;3.67;;;;;;;17.48;100.00;100051.13;5074810;28;21031;-78
2023/08/06 05:04:02;;;;;;;9.70;4.50;;;;;;;17.50;100.00;100046.09;5075370;28;20489;-74
2023/08/06 05:06:29;;;;;;;10.03;3.77;;;;;;;17.55;100.00;100048.53;5074557;28;20868;-72
2023/08/06 05:08:56;;;;;;;7.50;3.50;;;;;;;17.57;100.00;100048.94;5074694;28;20438;-73
2023/08/06 05:11:23;;;;;;;10.97;3.97;;;;;;;17.55;100.00;100045.78;5074809;28;20467;-73
2023/08/06 05:13:50;;;;;;;11.00;4.57;;;;;;;17.56;100.00;100045.41;5074377;28;20783;-73
2023/08/06 05:16:17;;;;;;;10.50;4.07;;;;;;;17.49;100.00;100045.28;5074293;28;20551;-73
2023/08/06 05:18:45;;;;;;;11.40;4.47;;;;;;;17.44;100.00;100047.50;5074448;28;20944;-73
2023/08/06 05:21:11;;;;;;;9.30;4.20;;;;;;;17.36;100.00;100039.16;5074770;28;20440;-73
2023/08/06 05:23:38;;;;;;;7.33;3.20;;;;;;;17.39;100.00;100038.44;5074186;28;20528;-73
2023/08/06 05:26:05;;;;;;;11.40;4.80;;;;;;;17.44;100.00;100031.88;5074271;28;20510;-73
2023/08/06 05:28:31;;;;;;;9.53;4.10;;;;;;;17.53;100.00;100032.47;5074475;28;20516;-73
2023/08/06 05:30:58;;;;;;;8.80;3.83;;;;;;;17.56;100.00;100022.72;5074401;28;20540;-73
2023/08/06 05:33:24;;;;;;;10.23;4.53;;;;;;;17.60;100.00;100029.84;5074299;28;20451;-73
2023/08/06 05:35:52;;;;;;;10.77;3.87;;;;;;;17.64;100.00;100014.28;5074195;28;20540;-73
2023/08/06 05:38:19;;;;;;;9.47;4.23;;;;;;;17.64;100.00;100016.22;5074220;28;20449;-73
2023/08/06 05:40:46;;;;;;;9.57;4.00;;;;;;;17.64;100.00;100010.75;5074181;28;20540;-73
2023/08/06 05:43:12;;;;;;;10.00;4.60;;;;;;;17.59;100.00;100019.25;5073791;28;20519;-73
2023/08/06 05:45:39;;;;;;;10.33;4.97;;;;;;;17.64;100.00;100005.28;5073886;28;20485;-72
2023/08/06 05:48:05;;;;;;;8.97;3.80;;;;;;;17.69;100.00;100009.66;5074381;28;20440;-72
2023/08/06 05:50:32;;;;;;;9.03;3.50;;;;;;;17.75;100.00;100014.53;5074326;28;20933;-72
2023/08/06 05:53:00;;;;;;;8.17;3.40;;;;;;;17.78;100.00;100016.50;5074010;28;20442;-72
2023/08/06 05:55:26;;;;;;;10.30;4.30;;;;;;;17.82;100.00;100009.16;5073840;28;20545;-72
2023/08/06 05:57:53;;;;;;;9.40;4.17;;;;;;;17.90;100.00;100019.09;5074203;28;20520;-72
2023/08/06 06:00:20;;;;;;;11.50;4.70;;;;;;;17.96;100.00;100024.28;5073898;28;20445;-72
2023/08/06 06:02:46;;;;;;;10.27;4.30;;;;;;;17.99;100.00;100013.38;5073792;28;20816;-73
2023/08/06 06:05:13;;;;;;;10.60;5.20;;;;;;;18.02;100.00;100017.34;5074080;28;20485;-73
2023/08/06 06:07:40;;;;;;;9.77;4.43;;;;;;;18.00;100.00;100025.91;5073742;28;20461;-73
2023/08/06 06:10:09;;;;;;;11.43;4.53;;;;;;;17.96;100.00;100021.53;5073269;28;20963;-73
2023/08/06 06:12:35;;;;;;;9.27;4.20;;;;;;;18.01;100.00;100022.00;5073511;28;20445;-73
2023/08/06 06:15:03;;;;;;;9.53;4.80;;;;;;;18.03;100.00;100018.91;5073555;28;20888;-73
2023/08/06 06:17:30;;;;;;;8.60;3.60;;;;;;;18.02;100.00;100014.59;5073658;28;20932;-73
2023/08/06 06:19:56;;;;;;;11.40;4.80;;;;;;;18.06;100.00;100019.00;5073331;28;20788;-73
2023/08/06 06:22:23;;;;;;;9.60;3.63;;;;;;;18.06;100.00;100018.16;5073935;28;20433;-73
2023/08/06 06:24:50;;;;;;;13.60;4.50;;;;;;;18.06;100.00;100012.69;5073153;28;20480;-73
2023/08/06 06:27:18;;;;;;;9.07;3.67;;;;;;;18.07;100.00;100006.06;5073588;28;20437;-73
2023/08/06 06:29:44;;;;;;;9.87;3.63;;;;;;;18.06;100.00;100013.50;5073571;28;20539;-73
2023/08/06 06:32:11;;;;;;;9.30;4.13;;;;;;;18.07;100.00;100008.81;5073850;28;20846;-73
2023/08/06 06:34:38;;;;;;;10.03;3.70;;;;;;;18.06;100.00;100008.03;5073507;28;20436;-73
2023/08/06 06:37:05;;;;;;;11.97;4.50;;;;;;;18.11;100.00;100010.47;5073162;28;20524;-73
2023/08/06 06:39:31;;;;;;;10.50;4.10;;;;;;;18.22;100.00;99996.13;5073791;28;20441;-73
2023/08/06 06:41:58;;;;;;;9.63;4.30;;;;;;;18.26;100.00;100000.50;5073413;28;20530;-73
2023/08/06 06:44:26;;;;;;;8.30;3.50;;;;;;;18.30;100.00;100004.09;5073742;28;20896;-73
2023/08/06 06:46:53;;;;;;;10.27;3.90;;;;;;;18.32;100.00;100004.50;5073300;28;20485;-73
2023/08/06 06:49:19;;;;;;;7.93;3.30;;;;;;;18.33;100.00;100008.88;5073301;28;20876;-73
2023/08/06 06:51:46;;;;;;;13.90;4.43;;;;;;;18.30;100.00;100001.38;5073575;28;20528;-73
2023/08/06 06:54:12;;;;;;;8.50;3.47;;;;;;;18.31;100.00;100002.16;5073313;28;20528;-73
2023/08/06 06:56:39;;;;;;;15.13;4.77;;;;;;;18.32;100.00;100007.25;5073177;28;20560;-73
2023/08/06 06:59:06;;;;;;;8.93;4.00;;;;;;;18.33;100.00;100003.38;5073288;28;20532;-73
2023/08/06 07:01:34;;;;;;;10.23;3.53;;;;;;;18.30;100.00;100004.09;5073186;28;20524;-73
2023/08/06 07:04:04;;;;;;;9.07;3.67;;;;;;;18.34;100.00;100002.22;5073149;28;20441;-73
2023/08/06 07:06:31;;;;;;;10.83;4.33;;;;;;;18.30;100.00;100006.06;5073211;28;20468;-73
2023/08/06 07:08:57;;;;;;;6.90;3.10;;;;;;;18.26;100.00;100007.94;5072887;28;20464;-73
2023/08/06 07:11:24;;;;;;;10.50;3.40;;;;;;;18.29;100.00;99996.25;5072796;28;20531;-73
2023/08/06 07:13:56;;;;;;;20.70;4.33;;;;;;;18.31;100.00;100002.94;5073212;28;20803;-73
2023/08/06 07:16:23;;;;;;;8.47;3.80;;;;;;;18.32;100.00;100009.22;5072737;28;20454;-73
2023/08/06 07:18:52;;;;;;;10.60;4.33;;;;;;;18.39;100.00;100012.88;5073250;28;20524;-73
2023/08/06 07:21:19;;;;;;;13.80;4.00;;;;;;;18.43;100.00;100003.91;5073343;28;20437;-73
2023/08/06 07:23:49;;;;;;;9.70;4.10;;;;;;;18.48;100.00;99995.38;5072937;28;20433;-73
2023/08/06 07:26:16;;;;;;;8.80;4.13;;;;;;;18.51;100.00;100000.91;5072828;28;20542;-73
2023/08/06 07:28:42;;;;;;;8.13;3.10;;;;;;;18.44;100.00;100005.50;5072990;28;20437;-73
2023/08/06 07:31:09;;;;;;;9.93;4.30;;;;;;;18.39;100.00;100004.63;5072939;28;20456;-73
2023/08/06 07:33:36;;;;;;;9.83;4.60;;;;;;;18.41;100.00;100012.50;5072906;28;20465;-73
2023/08/06 07:36:10;;;;;;;9.97;4.00;;;;;;;18.45;100.00;100007.84;5072859;28;20511;-73
2023/08/06 07:38:37;;;;;;;9.63;4.43;;;;;;;18.44;100.00;100006.28;5073096;28;20424;-73
2023/08/06 07:41:04;;;;;;;8.80;3.33;;;;;;;18.46;100.00;100005.91;5073189;28;20441;-73
2023/08/06 07:43:30;;;;;;;8.90;3.77;;;;;;;18.46;100.00;100008.63;5073547;28;20492;-73
2023/08/06 07:45:59;;;;;;;10.00;3.67;;;;;;;18.52;100.00;100002.50;5072771;28;20563;-73
2023/08/06 07:48:25;;;;;;;8.50;3.80;;;;;;;18.54;100.00;100010.34;5072866;28;20459;-73
2023/08/06 07:50:53;;;;;;;11.53;3.77;;;;;;;18.56;100.00;100005.28;5076296;28;20864;-73
2023/08/06 07:53:21;;;;;;;9.47;3.60;;;;;;;18.58;100.00;100005.69;5076678;28;20448;-73
2023/08/06 07:55:50;;;;;;;8.13;3.27;;;;;;;18.62;100.00;100001.84;5076347;28;20460;-73
2023/08/06 07:58:17;;;;;;;12.40;3.87;;;;;;;18.61;100.00;100004.97;5076130;28;20529;-74
2023/08/06 08:00:45;;;;;;;9.13;3.17;;;;;;;18.62;100.00;100003.81;5076166;28;20524;-73
2023/08/06 08:03:12;;;;;;;8.80;3.53;;;;;;;18.64;100.00;99998.75;5075788;28;20449;-73
2023/08/06 08:05:39;;;;;;;9.53;4.00;;;;;;;18.60;100.00;100001.44;5075511;28;20571;-73
2023/08/06 08:08:06;;;;;;;9.80;4.33;;;;;;;18.71;100.00;99995.34;5076278;28;20469;-73
2023/08/06 08:10:34;;;;;;;11.60;3.80;;;;;;;18.79;100.00;100000.56;5075710;28;20507;-72
2023/08/06 08:13:01;;;;;;;11.10;4.47;;;;;;;18.83;100.00;100000.59;5075559;28;20951;-72
2023/08/06 08:15:29;;;;;;;9.77;4.00;;;;;;;18.88;100.00;99997.53;5075517;28;20511;-72
2023/08/06 08:17:56;;;;;;;10.23;4.20;;;;;;;18.89;100.00;99994.41;5076211;28;20452;-72
2023/08/06 08:20:22;;;;;;;10.03;4.27;;;;;;;18.93;100.00;99996.41;5075731;28;20470;-72
2023/08/06 08:22:49;;;;;;;9.50;4.33;;;;;;;18.96;100.00;99993.72;5075735;28;20445;-73
2023/08/06 08:25:17;;;;;;;10.07;4.50;;;;;;;19.03;100.00;99987.53;5075207;28;20549;-73
2023/08/06 08:27:45;;;;;;;11.43;4.30;;;;;;;19.07;100.00;99982.88;5075785;28;20476;-73
2023/08/06 08:30:11;;;;;;;11.37;4.53;;;;;;;19.07;100.00;99978.16;5075654;28;20477;-73
2023/08/06 08:32:38;;;;;;;9.70;4.80;;;;;;;19.08;100.00;99976.22;5075542;28;20460;-73
2023/08/06 08:35:05;;;;;;;9.20;4.20;;;;;;;19.12;100.00;99974.31;5075350;28;20497;-73
2023/08/06 08:37:32;;;;;;;9.30;3.80;;;;;;;19.19;100.00;99976.38;5075418;28;20520;-72
2023/08/06 08:40:00;;;;;;;12.57;5.60;;;;;;;19.22;100.00;99970.13;5075404;28;20490;-72
2023/08/06 08:42:27;;;;;;;10.73;4.57;;;;;;;19.20;100.00;99964.22;5075011;28;20445;-73
2023/08/06 08:44:56;;;;;;;11.67;5.00;;;;;;;19.22;100.00;99972.88;5074804;28;20905;-73
2023/08/06 08:47:23;;;;;;;14.67;5.40;;;;;;;19.26;100.00;99971.75;5074898;28;20941;-73
2023/08/06 08:49:53;;;;;;;8.50;4.07;;;;;;;19.29;100.00;99962.75;5075258;28;20499;-73
2023/08/06 08:52:21;;;;;;;12.00;5.20;;;;;;;19.32;100.00;99967.50;5075157;28;20469;-73
2023/08/06 08:54:51;;;;;;;12.30;5.07;;;;;;;19.27;100.00;99961.56;5074926;28;20917;-73
2023/08/06 08:57:18;;;;;;;10.07;4.50;;;;;;;19.18;100.00;99955.56;5075054;28;20444;-72
2023/08/06 08:59:44;;;;;;;9.73;3.97;;;;;;;19.09;100.00;99950.38;5074591;28;20499;-72
2023/08/06 09:02:15;;;;;;;9.40;4.43;;;;;;;19.05;100.00;99952.28;5074875;28;20522;-72
2023/08/06 09:04:43;;;;;;;11.90;4.73;;;;;;;18.96;100.00;99949.03;5074836;28;20453;-72
2023/08/06 09:07:14;;;;;;;10.17;4.50;;;;;;;18.93;100.00;99938.78;5074798;28;20520;-72
2023/08/06 09:09:42;;;;;;;11.90;6.00;;;;;;;18.85;100.00;99944.16;5074678;28;20819;-72
2023/08/06 09:12:13;;;;;;;10.40;4.33;;;;;;;18.90;100.00;99934.81;5074805;28;20467;-72
2023/08/06 09:14:40;;;;;;;9.60;4.37;;;;;;;18.90;100.00;99932.91;5074373;28;20480;-73
2023/08/06 09:17:06;;;;;;;8.23;3.53;;;;;;;18.92;100.00;99934.47;5074672;28;20941;-72
2023/08/06 09:19:34;;;;;;;9.87;4.40;;;;;;;18.95;100.00;99928.22;5074252;28;20937;-72
2023/08/06 09:22:01;;;;;;;11.67;4.70;;;;;;;18.78;100.00;99932.34;5074894;28;20441;-72
2023/08/06 09:24:27;;;;;;;10.53;5.07;;;;;;;18.77;100.00;99926.06;5074551;28;20472;-73
2023/08/06 09:26:54;;;;;;;8.60;3.43;;;;;;;18.77;100.00;99922.50;5074429;28;20481;-72
2023/08/06 09:29:21;;;;;;;8.90;4.20;;;;;;;18.84;100.00;99915.16;5074135;28;20491;-72
2023/08/06 09:31:51;;;;;;;10.83;3.93;;;;;;;18.88;100.00;99916.00;5074263;28;20476;-72
2023/08/06 09:34:19;;;;;;;10.83;4.60;;;;;;;18.92;100.00;99910.56;5074272;28;20446;-72
2023/08/06 09:36:48;;;;;;;11.30;5.13;;;;;;;18.98;100.00;99914.53;5074031;28;20454;-71
2023/08/06 09:39:16;;;;;;;8.03;3.93;;;;;;;18.99;100.00;99910.66;5074580;28;20445;-73
2023/08/06 09:41:43;;;;;;;10.43;4.10;;;;;;;19.09;100.00;99911.94;5074336;28;20455;-71
2023/08/06 09:44:17;;;;;;;9.83;3.93;;;;;;;19.11;100.00;99901.34;5074286;28;20524;-71
2023/08/06 09:46:47;;;;;;;11.00;4.93;;;;;;;19.08;100.00;99902.09;5074165;28;20497;-71
2023/08/06 09:49:14;;;;;;;9.73;4.30;;;;;;;19.09;100.00;99895.47;5074237;28;20484;-71
2023/08/06 09:51:41;;;;;;;9.70;4.30;;;;;;;19.10;100.00;99888.78;5074019;28;20445;-71
2023/08/06 09:54:12;;;;;;;10.40;4.20;;;;;;;19.12;100.00;99898.25;5073886;28;20465;-71
2023/08/06 09:56:39;;;;;;;10.60;4.20;;;;;;;19.21;100.00;99889.69;5073946;28;20496;-71
2023/08/06 09:59:06;;;;;;;8.90;4.00;;;;;;;19.26;100.00;99891.31;5074285;28;20445;-71
2023/08/06 10:01:35;;;;;;;9.60;4.07;;;;;;;19.26;100.00;99881.13;5074200;28;20441;-69
2023/08/06 10:04:02;;;;;;;9.30;4.07;;;;;;;19.21;100.00;99883.41;5074121;28;20528;-69
2023/08/06 10:06:30;;;;;;;9.20;4.30;;;;;;;19.22;100.00;99877.56;5073576;28;20517;-69
2023/08/06 10:08:56;;;;;;;8.97;4.17;;;;;;;19.19;100.00;99881.03;5074090;28;20516;-69
2023/08/06 10:11:25;;;;;;;9.30;4.37;;;;;;;19.04;100.00;99874.63;5072982;28;20455;-69
2023/08/06 10:13:59;;;;;;;9.90;4.97;;;;;;;19.11;100.00;99884.88;5073028;28;20921;-69
2023/08/06 10:16:27;;;;;;;10.33;5.07;;;;;;;19.13;100.00;99877.06;5073717;28;20489;-69
2023/08/06 10:18:55;;;;;;;9.80;4.57;;;;;;;19.13;100.00;99872.38;5073509;28;20878;-69
2023/08/06 10:21:27;;;;;;;9.17;4.60;;;;;;;19.23;100.00;99870.91;5073993;28;20445;-69
2023/08/06 10:23:55;;;;;;;8.07;3.90;;;;;;;19.36;100.00;99874.16;5074140;28;20509;-69
2023/08/06 10:26:26;;;;;;;10.73;4.97;;;;;;;19.40;100.00;99873.03;5073763;28;20513;-69
2023/08/06 10:28:53;;;;;;;11.00;5.20;;;;;;;19.25;100.00;99862.25;5073488;28;20437;-69
2023/08/06 10:31:20;;;;;;;13.20;4.80;;;;;;;19.24;100.00;99864.22;5073933;28;20931;-69
2023/08/06 10:33:48;;;;;;;9.80;4.20;;;;;;;19.12;100.00;99861.75;5073861;28;20507;-70
2023/08/06 10:36:15;;;;;;;9.87;4.17;;;;;;;19.20;100.00;99863.41;5073779;28;20540;-72
2023/08/06 10:38:46;;;;;;;11.60;5.73;;;;;;;19.16;100.00;99857.88;5073549;28;20888;-72
2023/08/06 10:41:28;;;;;;;11.20;4.80;;;;;;;19.16;100.00;99868.06;5073828;28;20467;-68
2023/08/06 10:44:07;;;;;;;9.83;4.47;;;;;;;19.20;100.00;99860.66;5073422;28;20422;-68
2023/08/06 10:46:33;;;;;;;11.37;4.80;;;;;;;19.21;100.00;99859.47;5073421;28;20489;-68
2023/08/06 10:49:00;;;;;;;8.77;4.60;;;;;;;19.25;100.00;99854.81;5073685;28;20461;-68
2023/08/06 10:51:27;;;;;;;10.30;4.90;;;;;;;19.32;100.00;99849.41;5073716;28;20536;-70
2023/08/06 10:53:54;;;;;;;10.93;4.30;;;;;;;19.38;100.00;99849.84;5073296;28;20445;-69
2023/08/06 10:56:23;;;;;;;13.10;4.87;;;;;;;19.45;100.00;99854.63;5073231;28;20461;-69
2023/08/06 10:58:51;;;;;;;8.10;3.70;;;;;;;19.39;100.00;99848.69;5073353;28;21000;-69
2023/08/06 11:01:20;;;;;;;9.97;4.53;;;;;;;19.26;100.00;99842.69;5073174;28;20520;-69
2023/08/06 11:03:49;;;;;;;10.70;3.70;;;;;;;19.21;100.00;99843.00;5073170;28;20465;-69
2023/08/06 11:06:18;;;;;;;9.73;3.80;;;;;;;19.10;100.00;99837.41;5073329;28;20492;-69
2023/08/06 11:08:48;;;;;;;9.10;3.80;;;;;;;19.09;100.00;99833.09;5073126;28;20437;-69
2023/08/06 11:11:17;;;;;;;10.87;4.30;;;;;;;19.07;100.00;99840.91;5073146;28;20457;-69
2023/08/06 11:13:46;;;;;;;12.43;4.50;;;;;;;18.99;100.00;99835.72;5073111;28;20437;-69
2023/08/06 11:16:13;;;;;;;11.10;4.67;;;;;;;18.92;100.00;99825.47;5072970;28;20488;-69
2023/08/06 11:18:42;;;;;;;10.23;4.70;;;;;;;18.97;100.00;99827.09;5072973;28;20917;-69